WetterOnline ( https://www.wetteronline.de )

Wetter aktuell Satenas

Aktuelles Wetter: Satenas (54m)

6-stündlich | Neueste Meldungen
Ortszeit Temperatur Wetter
Sa, 19.10. 8:00 10.5° C bedeckt
Sa, 19.10. 2:00 10.8° C bedeckt
Fr, 18.10. 20:00 8.7° C bewölkt
Fr, 18.10. 14:00 9.7° C leichte Schauer
Fr, 18.10. 8:00 8.3° C Nebel (zunehmend)
Fr, 18.10. 2:00 10.4° C bedeckt
Do, 17.10. 20:00 10.9° C bedeckt
Do, 17.10. 14:00 9.6° C bedeckt
Ortszeit Temperatur Wetter
Sa, 19.10. 12:00 12.4° C bedeckt
Sa, 19.10. 11:50 12° C bedeckt
Sa, 19.10. 11:20 12° C bedeckt
Sa, 19.10. 11:00 12.2° C bedeckt
Sa, 19.10. 10:50 12° C bewölkt
Sa, 19.10. 10:20 11° C leichte Schauer
Sa, 19.10. 10:00 11.2° C bewölkt
Sa, 19.10. 9:20 11° C bewölkt
Sa, 19.10. 9:00 10.6° C bedeckt
Ortszeit Relative Feuchte Sichtweite
Sa, 19.10. 8:00 97% 28 km
Sa, 19.10. 2:00 98% 45 km
Fr, 18.10. 20:00 100% 20 km
Fr, 18.10. 14:00 99% 19 km
Fr, 18.10. 8:00 100% 0.5 km
Fr, 18.10. 2:00 100% 27 km
Do, 17.10. 20:00 100% 12 km
Do, 17.10. 14:00 100% 25 km
Ortszeit Relative Feuchte Sichtweite
Sa, 19.10. 12:00 91% 30 km
Sa, 19.10. 11:50 94% >10 km
Sa, 19.10. 11:20 94% >10 km
Sa, 19.10. 11:00 94% 26 km
Sa, 19.10. 10:50 94% >10 km
Sa, 19.10. 10:20 94% >10 km
Sa, 19.10. 10:00 95% 30 km
Sa, 19.10. 9:20 94% >10 km
Sa, 19.10. 9:00 97% 27 km
Ortszeit Niederschlagsmenge Niederschlagsart
Sa, 19.10. 8:00 1 l/m2 in 12 Std. -
Sa, 19.10. 2:00 1 l/m2 in 6 Std. Regenschauer
Fr, 18.10. 20:00 2 l/m2 in 12 Std. Regenschauer
Fr, 18.10. 14:00 0.2 l/m2 in 6 Std. Schauer
Fr, 18.10. 8:00 0.0 l/m2 Nebel
Fr, 18.10. 2:00 0.0 l/m2 in 6 Std. -
Do, 17.10. 20:00 0.5 l/m2 in 12 Std. Regenschauer
Do, 17.10. 14:00 0.0 l/m2 in 6 Std. Sprühregen
Ortszeit Niederschlagsmenge Niederschlagsart
Sa, 19.10. 12:00 0.0 l/m2 in 1 Std. Regenschauer
Sa, 19.10. 11:50 keine Meldung -
Sa, 19.10. 11:20 keine Meldung -
Sa, 19.10. 11:00 0.0 l/m2 in 1 Std. Schauer
Sa, 19.10. 10:50 keine Meldung -
Sa, 19.10. 10:20 keine Meldung -
Sa, 19.10. 10:00 0.0 l/m2 in 1 Std. Schauer
Sa, 19.10. 9:20 keine Meldung -
Sa, 19.10. 9:00 0.0 l/m2 in 1 Std. Schauer
Ortszeit Stärke Spitze Richtung
km/h Bft. km/h Grad Sektor
Sa, 19.10. 8:00 25 4 32 190° S
Sa, 19.10. 2:00 22 4 36 180° S
Fr, 18.10. 20:00 14 3 18 90° O
Fr, 18.10. 14:00 14 3 - 120° SO
Fr, 18.10. 8:00 11 2 14 200° S
Fr, 18.10. 2:00 11 2 - 190° S
Do, 17.10. 20:00 11 2 - 130° SO
Do, 17.10. 14:00 11 2 - 60° NO
Ortszeit Stärke Spitze Richtung
km/h Bft. km/h Grad Sektor
Sa, 19.10. 12:00 29 5 40 210° SW
Sa, 19.10. 11:50 28 4 - 210° SW
Sa, 19.10. 11:20 30 5 - 210° SW
Sa, 19.10. 11:00 29 5 40 210° SW
Sa, 19.10. 10:50 28 4 - 200° S
Sa, 19.10. 10:20 26 4 - 200° S
Sa, 19.10. 10:00 29 5 40 200° S
Sa, 19.10. 9:20 26 4 - 200° S
Sa, 19.10. 9:00 25 4 32 200° S
Ortszeit Untergrenze Bedeckung Gattung
total tief tief mittel hoch
Sa, 19.10. 8:00 660 m 8/8 8/8 - - -
Sa, 19.10. 2:00 510 m 8/8 8/8 - - -
Fr, 18.10. 20:00 690 m 8/8 7/8 - - -
Fr, 18.10. 14:00 1500 m 8/8 8/8 - - -
Fr, 18.10. 8:00 30 m - - - - -
Fr, 18.10. 2:00 1500 m 8/8 8/8 - - -
Do, 17.10. 20:00 180 m 8/8 8/8 - - -
Do, 17.10. 14:00 90 m 8/8 7/8 St - -
Ortszeit Bedeckungsgrad in Achtel und Wolkenuntergrenze
Sa, 19.10. 12:00 7(660m) 8(990m)
Sa, 19.10. 11:50 5-7(660m) 8(990m)
Sa, 19.10. 11:20 5-7(630m) 5-7(900m) 8(1050m)
Sa, 19.10. 11:00 2(630m) 7(1020m) 8(1290m)
Sa, 19.10. 10:50 1-2(750m) 5-7(1140m)
Sa, 19.10. 10:20 1-2(720m) 3-4(1290m) 7(6300m)
Sa, 19.10. 10:00 1(540m) 3(720m) 7(1800m)
Sa, 19.10. 9:20 1-2(690m) 5-7(1500m)
Sa, 19.10. 9:00 1(600m) 8(1500m)
Ortszeit Luftdruck NN (hPa) Tendenz (hPa in 3 Std.)
Sa, 19.10. 8:00 1000 + 0,9
Sa, 19.10. 2:00 998 - 1,2
Fr, 18.10. 20:00 1003 - 1,4
Fr, 18.10. 14:00 1007 - 1,9
Fr, 18.10. 8:00 1009 + 0,2
Fr, 18.10. 2:00 1009 + 0,4
Do, 17.10. 20:00 1008 - 0,1
Do, 17.10. 14:00 1008 + 0,1
Ortszeit Luftdruck NN (hPa) Tendenz (hPa in 3 Std.)
Sa, 19.10. 12:00 1002 + 1,4
Sa, 19.10. 11:50 1001 keine Meldung
Sa, 19.10. 11:20 1001 keine Meldung
Sa, 19.10. 11:00 1001 + 1,7
Sa, 19.10. 10:50 1001 keine Meldung
Sa, 19.10. 10:20 1000 keine Meldung
Sa, 19.10. 10:00 1001 + 1,7
Sa, 19.10. 9:20 1000 keine Meldung
Sa, 19.10. 9:00 1000 + 1,3
Ortszeit Schneehöhe (cm)
Sa, 19.10. 8:00 -
Sa, 19.10. 2:00 -
Fr, 18.10. 20:00 -
Fr, 18.10. 14:00 -
Fr, 18.10. 8:00 -
Fr, 18.10. 2:00 -
Do, 17.10. 20:00 -
Do, 17.10. 14:00 -
Ortszeit Schneehöhe (cm)
Sa, 19.10. 12:00 -
Sa, 19.10. 11:50 -
Sa, 19.10. 11:20 -
Sa, 19.10. 11:00 -
Sa, 19.10. 10:50 -
Sa, 19.10. 10:20 -
Sa, 19.10. 10:00 -
Sa, 19.10. 9:20 -
Sa, 19.10. 9:00 -
Link zu dieser Seite / Seite empfehlen

Das Wetter in ...